Van Wert, Ohio
Current Conditions -  °F | °C
As of 4:14 AM on Friday 31 Oct 2014 (Local Time) from KAXV Reporting Station
Overcast Overcast  
Wind Chill: 43°   Ceiling: 5000
Heat Index: 43°   Visibility: 10mi
Dew Point: 37°   Wind: 3mph
Humidity: 81%   Direction: 190°S
Pressure: 29.99"   Gusts: NA
Location:  40.87°N, 84.58°W
Report Text: KAXV 310814Z AUTO 19003KT 10SM OVC050 06/03 A2999 RMK AO2
Loading
Personal Weather Stations






























Interactive Weather Map
Tropical Storm Tracking
New forecast layout! Learn more

10-Day Weather Forecast

Advertisements
Track Severe Weather on mobile